createdAt,value
2023-02-15T00:00:52.444Z,6.27
2023-02-15T00:01:33.519Z,6.37
2023-02-15T00:02:14.482Z,6.33
2023-02-15T00:03:01.486Z,6.19
2023-02-15T00:03:55.445Z,6.34
2023-02-15T00:04:54.460Z,6.35
2023-02-15T00:05:48.442Z,6.36
2023-02-15T00:06:42.450Z,6.25
2023-02-15T00:07:36.447Z,6.35
2023-02-15T00:08:23.448Z,6.25
2023-02-15T00:08:57.554Z,6.35
2023-02-15T00:09:44.429Z,6.28
2023-02-15T00:10:18.536Z,6.26
2023-02-15T00:11:45.454Z,6.28
2023-02-15T00:12:19.505Z,6.22
2023-02-15T00:13:07.433Z,6.28
2023-02-15T00:13:50.449Z,6.23
2023-02-15T00:14:44.447Z,6.22
2023-02-15T00:15:38.425Z,6.22
2023-02-15T00:16:32.423Z,6.25
2023-02-15T00:17:26.430Z,6.31
2023-02-15T00:18:20.436Z,6.32
2023-02-15T00:19:09.466Z,6.25
2023-02-15T00:19:43.504Z,6.23
2023-02-15T00:20:30.446Z,6.19
2023-02-15T00:21:04.483Z,6.13
2023-02-15T00:21:52.439Z,6.10
2023-02-15T00:22:26.488Z,6.17
2023-02-15T00:23:13.405Z,6.16
2023-02-15T00:23:47.496Z,6.07
2023-02-15T00:24:34.453Z,6.23
2023-02-15T00:25:08.493Z,6.22
2023-02-15T00:25:55.447Z,6.21
2023-02-15T00:26:29.553Z,6.21
2023-02-15T00:27:16.412Z,6.03
2023-02-15T00:27:50.492Z,6.02
2023-02-15T00:28:38.407Z,6.15
2023-02-15T00:29:12.473Z,6.15
2023-02-15T00:29:59.484Z,5.98
2023-02-15T00:30:33.510Z,5.99
2023-02-15T00:31:20.490Z,6.08
2023-02-15T00:31:54.570Z,6.04
2023-02-15T00:32:41.405Z,6.04
2023-02-15T00:33:15.477Z,5.84
2023-02-15T00:34:02.429Z,5.86
2023-02-15T00:34:36.463Z,5.95
2023-02-15T00:35:23.435Z,6.03
2023-02-15T00:36:05.473Z,5.99
2023-02-15T00:36:52.390Z,5.94
2023-02-15T00:37:26.511Z,6.05
2023-02-15T00:38:13.415Z,5.90
2023-02-15T00:38:47.512Z,5.96
2023-02-15T00:39:36.403Z,5.94
2023-02-15T00:40:10.479Z,5.86
2023-02-15T00:40:50.416Z,5.97
2023-02-15T00:41:30.462Z,5.85
2023-02-15T00:42:10.389Z,5.99
2023-02-15T00:42:50.472Z,6.01
2023-02-15T00:43:31.407Z,5.99
2023-02-15T00:44:12.467Z,6.03
2023-02-15T00:44:52.396Z,5.96
2023-02-15T00:45:32.478Z,6.07
2023-02-15T00:46:13.520Z,6.05
2023-02-15T00:46:53.539Z,6.05
2023-02-15T00:47:34.395Z,6.04
2023-02-15T00:48:28.379Z,6.02
2023-02-15T00:49:22.400Z,5.95
2023-02-15T00:50:16.418Z,6.04
2023-02-15T00:51:13.504Z,6.05
2023-02-15T00:52:07.394Z,5.91
2023-02-15T00:53:01.406Z,5.99
2023-02-15T00:53:55.432Z,5.98
2023-02-15T00:54:49.385Z,5.99
2023-02-15T00:55:43.401Z,6.06
2023-02-15T00:56:30.472Z,6.01
2023-02-15T00:57:04.682Z,6.10
2023-02-15T00:57:51.391Z,6.02
2023-02-15T00:58:25.537Z,6.06
2023-02-15T00:59:12.384Z,5.86
2023-02-15T00:59:46.454Z,5.95
2023-02-15T01:00:33.378Z,5.80
2023-02-15T01:01:17.496Z,5.86
2023-02-15T01:01:57.413Z,5.71
2023-02-15T01:02:37.501Z,5.90
2023-02-15T01:03:19.420Z,5.83
2023-02-15T01:03:59.510Z,5.86
2023-02-15T01:04:40.400Z,5.91
2023-02-15T01:05:20.436Z,5.78
2023-02-15T01:06:00.705Z,5.68
2023-02-15T01:06:41.482Z,5.92
2023-02-15T01:07:21.390Z,5.95
2023-02-15T01:08:01.432Z,5.95
2023-02-15T01:08:42.366Z,5.85
2023-02-15T01:09:23.255Z,5.97
2023-02-15T01:10:03.393Z,5.79
2023-02-15T01:10:46.711Z,5.77
2023-02-15T01:11:29.366Z,5.87
2023-02-15T01:12:09.786Z,5.81
2023-02-15T01:12:50.418Z,5.93
2023-02-15T01:13:30.446Z,5.93
2023-02-15T01:14:11.368Z,5.88
2023-02-15T01:14:51.415Z,5.76
2023-02-15T01:15:32.406Z,5.84
2023-02-15T01:16:12.549Z,5.75
2023-02-15T01:16:53.375Z,5.77
2023-02-15T01:17:33.519Z,5.87
2023-02-15T01:18:18.402Z,5.91
2023-02-15T01:18:58.473Z,5.83
2023-02-15T01:19:38.361Z,5.86
2023-02-15T01:20:19.771Z,5.92
2023-02-15T01:21:00.366Z,5.92
2023-02-15T01:21:41.567Z,5.92
2023-02-15T01:22:21.340Z,5.81
2023-02-15T01:23:02.421Z,5.84
2023-02-15T01:23:42.386Z,5.94
2023-02-15T01:24:22.416Z,5.88
2023-02-15T01:25:03.358Z,5.89
2023-02-15T01:25:43.528Z,5.86
2023-02-15T01:26:24.351Z,5.87
2023-02-15T01:27:04.426Z,5.89
2023-02-15T01:27:44.345Z,5.89
2023-02-15T01:28:24.413Z,5.82
2023-02-15T01:29:05.375Z,5.89
2023-02-15T01:29:45.421Z,5.80
2023-02-15T01:30:26.384Z,5.91
2023-02-15T01:31:06.550Z,5.78
2023-02-15T01:31:46.497Z,5.90
2023-02-15T01:32:27.650Z,5.86
2023-02-15T01:33:11.343Z,5.86
2023-02-15T01:33:51.438Z,5.83
2023-02-15T01:34:31.352Z,5.85
2023-02-15T01:35:12.430Z,5.85
2023-02-15T01:35:53.381Z,5.75
2023-02-15T01:36:33.407Z,5.85
2023-02-15T01:37:14.367Z,5.77
2023-02-15T01:37:54.408Z,5.82
2023-02-15T01:38:34.353Z,5.87
2023-02-15T01:39:14.489Z,5.88
2023-02-15T01:39:54.390Z,5.62
2023-02-15T01:40:34.398Z,5.63
2023-02-15T01:41:33.340Z,5.76
2023-02-15T01:42:18.410Z,5.79
2023-02-15T01:43:03.334Z,5.77
2023-02-15T01:43:52.421Z,5.79
2023-02-15T01:45:00.365Z,5.66
2023-02-15T01:45:40.443Z,5.75
2023-02-15T01:46:23.391Z,5.71
2023-02-15T01:47:03.382Z,5.70
2023-02-15T01:47:48.331Z,5.70
2023-02-15T01:48:42.344Z,5.63
2023-02-15T01:49:41.338Z,5.62
2023-02-15T01:50:49.361Z,5.75
2023-02-15T01:51:32.391Z,5.67
2023-02-15T01:52:12.385Z,5.64
2023-02-15T01:53:29.384Z,5.74
2023-02-15T01:54:35.312Z,5.71
2023-02-15T01:55:16.394Z,5.65
2023-02-15T01:56:20.364Z,5.70
2023-02-15T01:57:03.381Z,5.53
2023-02-15T01:57:43.324Z,5.67
2023-02-15T01:58:24.401Z,5.63
2023-02-15T01:59:11.319Z,5.52
2023-02-15T01:59:56.371Z,5.53
2023-02-15T02:00:37.323Z,5.55
2023-02-15T02:01:17.568Z,5.67
2023-02-15T02:02:01.386Z,5.63
2023-02-15T02:02:42.435Z,5.50
2023-02-15T02:03:22.347Z,5.59
2023-02-15T02:04:45.374Z,5.59
2023-02-15T02:05:25.322Z,5.54
2023-02-15T02:06:05.420Z,5.64
2023-02-15T02:06:47.299Z,5.60
2023-02-15T02:07:31.316Z,5.60
2023-02-15T02:08:06.394Z,5.61
2023-02-15T02:08:54.331Z,5.61
2023-02-15T02:09:28.380Z,5.43
2023-02-15T02:10:19.313Z,5.55
2023-02-15T02:10:53.437Z,5.49
2023-02-15T02:11:41.299Z,5.47
2023-02-15T02:12:16.545Z,5.37
2023-02-15T02:13:01.334Z,5.63
2023-02-15T02:13:41.363Z,5.65
2023-02-15T02:14:23.295Z,5.60
2023-02-15T02:15:04.394Z,5.46
2023-02-15T02:16:31.321Z,5.51
2023-02-15T02:17:59.433Z,5.62
2023-02-15T02:19:03.320Z,5.62
2023-02-15T02:20:34.340Z,5.40
2023-02-15T02:21:49.314Z,5.28
2023-02-15T02:23:22.304Z,5.39
2023-02-15T02:24:38.326Z,5.30
2023-02-15T02:26:05.293Z,5.39
2023-02-15T02:27:33.290Z,5.44
2023-02-15T02:29:03.300Z,5.45
2023-02-15T02:30:30.401Z,5.41
2023-02-15T02:31:57.338Z,5.44
2023-02-15T02:33:39.269Z,5.42
2023-02-15T02:34:45.307Z,5.47
2023-02-15T02:36:04.463Z,5.34
2023-02-15T02:37:17.278Z,5.35
2023-02-15T02:39:57.267Z,5.40
2023-02-15T02:41:15.310Z,5.41
2023-02-15T02:42:29.272Z,5.42
2023-02-15T02:43:37.275Z,5.41
2023-02-15T02:44:41.261Z,5.35
2023-02-15T02:45:54.258Z,5.33
2023-02-15T02:46:42.343Z,5.37
2023-02-15T02:47:33.355Z,5.45
2023-02-15T02:48:20.271Z,5.35
2023-02-15T02:49:00.321Z,5.31
2023-02-15T02:49:47.283Z,5.41
2023-02-15T02:50:35.331Z,5.35
2023-02-15T02:51:15.250Z,5.47
2023-02-15T02:52:12.294Z,5.39
2023-02-15T02:53:09.247Z,5.49
2023-02-15T02:54:08.266Z,5.46
2023-02-15T02:55:02.261Z,5.36
2023-02-15T02:56:45.262Z,5.42
2023-02-15T02:57:35.275Z,5.30
2023-02-15T02:58:15.324Z,5.42
2023-02-15T02:59:15.235Z,5.23
2023-02-15T02:59:54.310Z,5.34
2023-02-15T03:00:59.268Z,5.32
2023-02-15T03:01:49.444Z,5.35
2023-02-15T03:03:06.399Z,5.30
2023-02-15T03:03:47.311Z,5.34
2023-02-15T03:04:39.263Z,5.32
2023-02-15T03:05:19.336Z,5.29
2023-02-15T03:06:12.228Z,5.32
2023-02-15T03:06:53.408Z,5.24
2023-02-15T03:07:43.260Z,5.31
2023-02-15T03:08:29.278Z,5.28
2023-02-15T03:09:52.243Z,5.22
2023-02-15T03:10:47.252Z,5.18
2023-02-15T03:11:41.239Z,5.02
2023-02-15T03:12:39.252Z,5.02
2023-02-15T03:13:34.281Z,5.00
2023-02-15T03:14:29.254Z,5.16
2023-02-15T03:16:07.278Z,5.18
2023-02-15T03:17:02.231Z,5.06
2023-02-15T03:18:00.222Z,5.20
2023-02-15T03:19:04.269Z,5.26
2023-02-15T03:20:00.242Z,5.20
2023-02-15T03:20:54.257Z,5.12
2023-02-15T03:22:05.235Z,5.24
2023-02-15T03:23:10.235Z,5.14
2023-02-15T03:24:28.253Z,5.18
2023-02-15T03:25:48.227Z,5.20
2023-02-15T03:26:44.239Z,5.18
2023-02-15T03:27:42.240Z,5.11
2023-02-15T03:28:46.241Z,5.18
2023-02-15T03:29:42.269Z,5.09
2023-02-15T03:30:37.222Z,5.16
2023-02-15T03:31:32.337Z,5.13
2023-02-15T03:32:27.237Z,5.20
2023-02-15T03:33:22.237Z,5.19
2023-02-15T03:34:24.244Z,5.08
2023-02-15T03:35:05.246Z,5.07
2023-02-15T03:36:08.325Z,5.16
2023-02-15T03:36:57.230Z,5.25
2023-02-15T03:37:52.334Z,4.99
2023-02-15T03:38:58.219Z,5.15
2023-02-15T03:39:55.296Z,5.06
2023-02-15T03:41:02.266Z,4.97
2023-02-15T03:41:50.317Z,4.99
2023-02-15T03:42:37.214Z,5.00
2023-02-15T03:43:39.320Z,4.95
2023-02-15T03:44:36.220Z,4.86
2023-02-15T03:45:20.261Z,4.75
2023-02-15T03:46:04.274Z,4.88
2023-02-15T03:46:56.331Z,4.89
2023-02-15T03:47:42.207Z,4.89
2023-02-15T03:48:22.281Z,4.85
2023-02-15T03:49:20.221Z,4.53
2023-02-15T03:50:30.773Z,4.74
2023-02-15T03:51:35.226Z,4.82
2023-02-15T03:52:16.309Z,4.88
2023-02-15T03:52:56.252Z,4.70
2023-02-15T03:53:36.296Z,4.85
2023-02-15T03:54:50.212Z,4.88
2023-02-15T03:55:30.261Z,4.78
2023-02-15T03:56:11.211Z,4.77
2023-02-15T03:57:11.206Z,4.87
2023-02-15T03:58:10.730Z,4.73
2023-02-15T03:59:10.197Z,4.93
2023-02-15T04:00:08.822Z,4.97
2023-02-15T04:01:34.217Z,4.90
2023-02-15T04:02:36.276Z,5.01
2023-02-15T04:03:16.739Z,5.00
2023-02-15T04:04:34.172Z,4.82
2023-02-15T04:05:07.965Z,4.92
2023-02-15T04:05:57.194Z,4.99
2023-02-15T04:06:30.877Z,5.02
2023-02-15T04:07:22.188Z,5.05
2023-02-15T04:08:02.267Z,4.97
2023-02-15T04:09:00.881Z,4.98
2023-02-15T04:10:00.176Z,4.99
2023-02-15T04:10:57.178Z,5.07
2023-02-15T04:11:38.175Z,4.98
2023-02-15T04:12:18.257Z,4.92
2023-02-15T04:12:58.192Z,5.01
2023-02-15T04:13:40.197Z,5.11
2023-02-15T04:14:32.804Z,5.06
2023-02-15T04:15:25.743Z,4.99
2023-02-15T04:16:13.226Z,5.03
2023-02-15T04:16:47.286Z,5.00
2023-02-15T04:17:20.971Z,5.02
2023-02-15T04:18:01.163Z,4.95
2023-02-15T04:19:01.207Z,5.07
2023-02-15T04:19:53.411Z,4.94
2023-02-15T04:20:59.182Z,4.96
2023-02-15T04:21:51.658Z,4.98
2023-02-15T04:22:56.167Z,5.04
2023-02-15T04:23:48.339Z,5.09
2023-02-15T04:24:47.184Z,5.08
2023-02-15T04:25:21.280Z,5.10
2023-02-15T04:25:54.859Z,4.95
2023-02-15T04:26:35.183Z,4.88
2023-02-15T04:27:10.486Z,4.82
2023-02-15T04:27:48.259Z,4.86
2023-02-15T04:28:28.199Z,4.86
2023-02-15T04:29:02.214Z,4.67
2023-02-15T04:29:35.876Z,4.77
2023-02-15T04:30:19.302Z,4.78
2023-02-15T04:30:54.375Z,4.86
2023-02-15T04:31:27.996Z,4.79
2023-02-15T04:32:09.258Z,4.99
2023-02-15T04:32:43.257Z,4.75
2023-02-15T04:33:16.867Z,4.73
2023-02-15T04:33:57.148Z,4.82
2023-02-15T04:34:32.221Z,4.65
2023-02-15T04:35:07.534Z,4.79
2023-02-15T04:35:47.173Z,4.69
2023-02-15T04:36:21.203Z,4.78
2023-02-15T04:37:08.141Z,4.68
2023-02-15T04:37:42.214Z,4.76
2023-02-15T04:38:30.179Z,4.66
2023-02-15T04:39:04.284Z,4.78
2023-02-15T04:39:51.159Z,4.79
2023-02-15T04:40:25.201Z,4.81
2023-02-15T04:41:12.161Z,4.72
2023-02-15T04:41:46.272Z,4.66
2023-02-15T04:42:33.130Z,4.76
2023-02-15T04:43:07.197Z,4.76
2023-02-15T04:43:54.134Z,4.57
2023-02-15T04:44:28.215Z,4.73
2023-02-15T04:45:16.142Z,4.70
2023-02-15T04:45:59.878Z,4.65
2023-02-15T04:46:41.165Z,4.76
2023-02-15T04:47:21.207Z,4.73
2023-02-15T04:48:01.153Z,4.80
2023-02-15T04:48:41.194Z,4.73
2023-02-15T04:49:21.142Z,4.76
2023-02-15T04:50:05.864Z,4.86
2023-02-15T04:50:46.127Z,4.88
2023-02-15T04:51:27.206Z,4.79
2023-02-15T04:52:08.163Z,4.71
2023-02-15T04:52:48.201Z,4.69
2023-02-15T04:53:28.138Z,4.86
2023-02-15T04:54:08.196Z,4.88
2023-02-15T04:54:49.121Z,4.79
2023-02-15T04:55:29.186Z,4.68
2023-02-15T04:56:10.131Z,4.72
2023-02-15T04:56:51.221Z,4.79
2023-02-15T04:57:31.156Z,4.67
2023-02-15T04:58:11.359Z,4.73
2023-02-15T04:58:51.136Z,4.56
2023-02-15T04:59:31.198Z,4.66
2023-02-15T05:00:12.141Z,4.71
2023-02-15T05:00:52.218Z,4.66
2023-02-15T05:01:32.193Z,4.65
2023-02-15T05:02:13.175Z,4.65
2023-02-15T05:02:53.127Z,4.59
2023-02-15T05:03:33.178Z,4.44
2023-02-15T05:04:13.165Z,4.61
2023-02-15T05:04:53.446Z,4.43
2023-02-15T05:05:34.111Z,4.53
2023-02-15T05:06:14.187Z,4.46
2023-02-15T05:06:54.130Z,4.42
2023-02-15T05:07:34.167Z,4.36
2023-02-15T05:08:14.181Z,4.51
2023-02-15T05:08:54.172Z,4.43
2023-02-15T05:09:34.128Z,4.41
2023-02-15T05:10:16.167Z,4.31
2023-02-15T05:10:57.120Z,4.33
2023-02-15T05:11:37.190Z,4.37
2023-02-15T05:12:17.136Z,4.37
2023-02-15T05:12:57.185Z,4.38
2023-02-15T05:13:37.129Z,4.26
2023-02-15T05:14:17.219Z,4.18
2023-02-15T05:14:57.104Z,4.27
2023-02-15T05:15:37.155Z,4.44
2023-02-15T05:16:17.145Z,4.49
2023-02-15T05:16:57.514Z,4.41
2023-02-15T05:17:37.119Z,4.20
2023-02-15T05:18:17.158Z,4.44
2023-02-15T05:18:57.129Z,4.38
2023-02-15T05:19:37.170Z,4.38
2023-02-15T05:20:18.090Z,4.41
2023-02-15T05:20:58.175Z,4.35
2023-02-15T05:21:40.132Z,4.30
2023-02-15T05:22:20.154Z,4.29
2023-02-15T05:23:03.105Z,4.32
2023-02-15T05:23:43.162Z,4.35
2023-02-15T05:24:42.145Z,4.44
2023-02-15T05:25:40.910Z,4.45
2023-02-15T05:26:48.103Z,4.48
2023-02-15T05:28:00.102Z,4.32
2023-02-15T05:28:54.089Z,4.43
2023-02-15T05:29:48.121Z,4.47
2023-02-15T05:30:42.477Z,4.36
2023-02-15T05:31:37.375Z,4.37
2023-02-15T05:32:31.212Z,4.39
2023-02-15T05:33:25.105Z,4.51
2023-02-15T05:34:19.117Z,4.50
2023-02-15T05:35:06.134Z,4.65
2023-02-15T05:35:41.195Z,4.52
2023-02-15T05:36:28.128Z,4.55
2023-02-15T05:37:02.178Z,4.56
2023-02-15T05:37:49.107Z,4.57
2023-02-15T05:38:23.171Z,4.56
2023-02-15T05:39:13.112Z,4.57
2023-02-15T05:39:47.200Z,4.59
2023-02-15T05:40:27.102Z,4.58
2023-02-15T05:41:07.143Z,4.68
2023-02-15T05:41:47.083Z,4.73
2023-02-15T05:42:28.187Z,4.75
2023-02-15T05:43:09.102Z,4.74
2023-02-15T05:43:49.206Z,4.70
2023-02-15T05:44:29.115Z,4.76
2023-02-15T05:45:10.100Z,4.67
2023-02-15T05:45:59.151Z,4.80
2023-02-15T05:46:39.198Z,4.69
2023-02-15T05:47:20.072Z,4.81
2023-02-15T05:48:00.214Z,4.75
2023-02-15T05:48:42.128Z,4.79
2023-02-15T05:49:22.189Z,4.82
2023-02-15T05:50:03.236Z,4.74
2023-02-15T05:50:43.204Z,4.76
2023-02-15T05:51:24.113Z,4.76
2023-02-15T05:52:04.198Z,4.74
2023-02-15T05:52:44.084Z,4.60
2023-02-15T05:53:24.145Z,4.72
2023-02-15T05:54:04.086Z,4.69
2023-02-15T05:54:44.148Z,4.73
2023-02-15T05:55:25.067Z,4.87
2023-02-15T05:56:06.361Z,4.87
2023-02-15T05:56:46.111Z,4.72
2023-02-15T05:57:26.205Z,4.77
2023-02-15T05:58:06.080Z,4.92
2023-02-15T05:58:48.153Z,4.83
2023-02-15T05:59:29.082Z,4.86
2023-02-15T06:00:12.134Z,4.85
2023-02-15T06:00:53.093Z,4.85
2023-02-15T06:01:33.135Z,4.88
2023-02-15T06:02:14.150Z,4.98
2023-02-15T06:02:54.357Z,4.78
2023-02-15T06:03:36.112Z,4.94
2023-02-15T06:04:16.159Z,4.93
2023-02-15T06:04:57.084Z,4.95
2023-02-15T06:05:37.172Z,4.97
2023-02-15T06:06:18.096Z,5.02
2023-02-15T06:06:58.150Z,4.93
2023-02-15T06:07:39.108Z,4.99
2023-02-15T06:08:19.140Z,5.02
2023-02-15T06:08:59.103Z,4.99
2023-02-15T06:09:39.150Z,5.00
2023-02-15T06:10:20.090Z,4.86
2023-02-15T06:11:00.132Z,4.95
2023-02-15T06:11:41.141Z,5.02
2023-02-15T06:12:21.117Z,4.94
2023-02-15T06:13:01.244Z,5.09
2023-02-15T06:13:42.149Z,5.09
2023-02-15T06:14:22.062Z,5.05
2023-02-15T06:15:02.119Z,5.02
2023-02-15T06:15:43.091Z,5.05
2023-02-15T06:16:23.137Z,5.25
2023-02-15T06:17:03.067Z,5.16
2023-02-15T06:17:43.475Z,5.13
2023-02-15T06:18:26.079Z,5.22
2023-02-15T06:19:06.314Z,5.18
2023-02-15T06:19:47.047Z,5.17
2023-02-15T06:20:27.354Z,5.18
2023-02-15T06:21:08.053Z,5.18
2023-02-15T06:21:48.254Z,5.31
2023-02-15T06:22:28.059Z,5.27
2023-02-15T06:23:08.249Z,5.33
2023-02-15T06:23:49.109Z,5.36
2023-02-15T06:24:29.185Z,5.22
2023-02-15T06:25:10.049Z,5.35
2023-02-15T06:25:52.140Z,5.40
2023-02-15T06:26:33.046Z,5.40
2023-02-15T06:27:13.132Z,5.30
2023-02-15T06:27:58.065Z,5.41
2023-02-15T06:28:42.011Z,5.41
2023-02-15T06:29:22.060Z,5.39
2023-02-15T06:30:04.197Z,5.44
2023-02-15T06:30:44.119Z,5.50
2023-02-15T06:31:24.256Z,5.57
2023-02-15T06:32:05.054Z,5.56
2023-02-15T06:32:45.336Z,5.61
2023-02-15T06:33:25.031Z,5.64
2023-02-15T06:34:05.275Z,5.66
2023-02-15T06:34:45.093Z,5.62
2023-02-15T06:35:25.110Z,5.46
2023-02-15T06:36:06.115Z,5.63
2023-02-15T06:36:46.144Z,5.58
2023-02-15T06:37:26.047Z,5.63
2023-02-15T06:38:06.122Z,5.57
2023-02-15T06:38:46.012Z,5.58
2023-02-15T06:39:26.081Z,5.55
2023-02-15T06:40:07.069Z,5.56
2023-02-15T06:40:47.197Z,5.68
2023-02-15T06:41:27.058Z,5.60
2023-02-15T06:42:07.142Z,5.73
2023-02-15T06:42:48.049Z,5.74
2023-02-15T06:43:28.122Z,5.78
2023-02-15T06:44:09.033Z,5.81
2023-02-15T06:44:49.184Z,5.70
2023-02-15T06:45:29.069Z,5.78
2023-02-15T06:46:09.129Z,5.80
2023-02-15T06:46:50.114Z,5.93
2023-02-15T06:47:30.121Z,5.97
2023-02-15T06:48:14.079Z,6.01
2023-02-15T06:48:54.108Z,5.84
2023-02-15T06:49:35.023Z,6.02
2023-02-15T06:50:16.083Z,5.90
2023-02-15T06:50:57.040Z,5.90
2023-02-15T06:51:37.102Z,5.92
2023-02-15T06:52:18.045Z,6.01
2023-02-15T06:53:04.083Z,5.98
2023-02-15T06:53:44.048Z,5.91
2023-02-15T06:54:24.078Z,6.01
2023-02-15T06:55:04.022Z,6.02
2023-02-15T06:55:44.122Z,6.06
2023-02-15T06:56:25.303Z,6.01
2023-02-15T06:57:05.159Z,6.00
2023-02-15T06:57:45.038Z,6.07
2023-02-15T06:58:25.109Z,6.01
2023-02-15T06:59:05.005Z,6.19
2023-02-15T06:59:45.067Z,6.16
2023-02-15T07:00:26.022Z,6.27
2023-02-15T07:01:07.102Z,6.21
2023-02-15T07:01:47.091Z,6.02
2023-02-15T07:03:05.199Z,6.20
2023-02-15T07:03:45.000Z,6.15
2023-02-15T07:04:25.406Z,6.23
2023-02-15T07:05:06.177Z,6.24
2023-02-15T07:05:46.542Z,6.48
2023-02-15T07:06:27.328Z,6.52
2023-02-15T07:07:07.991Z,6.54
2023-02-15T07:07:42.097Z,6.32
2023-02-15T07:08:29.986Z,6.45
2023-02-15T07:09:05.075Z,6.44
2023-02-15T07:09:52.031Z,6.46
2023-02-15T07:10:26.439Z,6.41
2023-02-15T07:11:33.069Z,6.48
2023-02-15T07:12:31.999Z,6.35
2023-02-15T07:13:26.046Z,6.46
2023-02-15T07:14:20.007Z,6.34
2023-02-15T07:15:15.013Z,6.10
2023-02-15T07:16:08.978Z,6.28
2023-02-15T07:17:02.976Z,6.25
2023-02-15T07:17:51.055Z,6.25
2023-02-15T07:18:25.077Z,6.33
2023-02-15T07:19:12.146Z,6.23
2023-02-15T07:19:46.030Z,6.30
2023-02-15T07:20:32.971Z,6.05
2023-02-15T07:21:08.833Z,6.09
2023-02-15T07:21:56.031Z,5.99
2023-02-15T07:22:30.044Z,5.93
2023-02-15T07:23:10.991Z,5.79
2023-02-15T07:23:51.055Z,5.91
2023-02-15T07:24:31.986Z,5.97
2023-02-15T07:25:16.049Z,5.93
2023-02-15T07:25:56.967Z,6.03
2023-02-15T07:26:40.062Z,6.09
2023-02-15T07:27:19.975Z,5.99
2023-02-15T07:28:10.390Z,6.16
2023-02-15T07:28:49.991Z,6.19
2023-02-15T07:29:30.195Z,6.18
2023-02-15T07:30:13.014Z,6.23
2023-02-15T07:30:53.439Z,6.25
2023-02-15T07:31:32.946Z,6.26
2023-02-15T07:32:13.070Z,6.32
2023-02-15T07:33:11.972Z,6.21
2023-02-15T07:33:58.999Z,6.11
2023-02-15T07:34:52.990Z,6.26
2023-02-15T07:35:47.962Z,6.07
2023-02-15T07:36:41.956Z,6.19
2023-02-15T07:37:35.957Z,6.25
2023-02-15T07:38:29.955Z,6.30
2023-02-15T07:39:17.969Z,6.32
2023-02-15T07:39:52.091Z,6.19
2023-02-15T07:40:38.959Z,6.20
2023-02-15T07:41:21.020Z,6.41
2023-02-15T07:42:08.982Z,6.03
2023-02-15T07:42:43.025Z,5.99
2023-02-15T07:43:29.964Z,6.10
2023-02-15T07:44:04.012Z,6.10
2023-02-15T07:44:43.973Z,6.00
2023-02-15T07:45:23.997Z,6.08
2023-02-15T07:46:16.059Z,6.02
2023-02-15T07:46:56.210Z,6.13
2023-02-15T07:47:35.952Z,6.18
2023-02-15T07:48:16.039Z,6.07
2023-02-15T07:48:56.274Z,6.21
2023-02-15T07:49:36.016Z,6.28
2023-02-15T07:50:16.972Z,6.18
2023-02-15T07:50:57.126Z,6.22
2023-02-15T07:51:36.939Z,6.23
2023-02-15T07:52:17.020Z,6.32
2023-02-15T07:52:56.956Z,6.34
2023-02-15T07:53:38.026Z,6.41
2023-02-15T07:54:18.957Z,6.15
2023-02-15T07:54:59.006Z,6.20
2023-02-15T07:55:38.992Z,6.23
2023-02-15T07:56:20.997Z,6.19
2023-02-15T07:57:00.929Z,6.27
2023-02-15T07:57:40.989Z,6.18
2023-02-15T07:58:21.929Z,6.26
2023-02-15T07:59:04.069Z,6.20
2023-02-15T07:59:43.943Z,6.30
2023-02-15T08:00:27.532Z,6.26
2023-02-15T08:01:11.963Z,6.23
2023-02-15T08:01:53.846Z,6.15
2023-02-15T08:02:35.945Z,6.19
2023-02-15T08:03:16.218Z,6.10
2023-02-15T08:03:55.986Z,6.37
2023-02-15T08:04:35.994Z,6.22
2023-02-15T08:05:15.912Z,6.15
2023-02-15T08:05:55.969Z,6.22
2023-02-15T08:06:40.969Z,6.04
2023-02-15T08:07:34.951Z,6.15
2023-02-15T08:08:36.952Z,6.11
2023-02-15T08:09:30.920Z,6.18
2023-02-15T08:10:44.922Z,6.10
2023-02-15T08:11:46.938Z,6.11
2023-02-15T08:12:41.944Z,6.37
2023-02-15T08:13:35.968Z,6.28
2023-02-15T08:14:33.946Z,6.39
2023-02-15T08:15:27.924Z,6.25
2023-02-15T08:16:21.958Z,6.26
2023-02-15T08:17:11.927Z,6.20
2023-02-15T08:17:45.975Z,6.25
2023-02-15T08:18:32.898Z,6.46
2023-02-15T08:19:14.052Z,6.41
2023-02-15T08:20:00.956Z,6.56
2023-02-15T08:20:35.002Z,6.60
2023-02-15T08:21:24.404Z,6.58
2023-02-15T08:22:08.086Z,6.52
2023-02-15T08:22:48.022Z,6.51
2023-02-15T08:23:27.988Z,6.58
2023-02-15T08:24:08.925Z,6.67
2023-02-15T08:24:48.980Z,6.64
2023-02-15T08:25:28.914Z,6.67
2023-02-15T08:26:09.042Z,6.86
2023-02-15T08:26:51.914Z,6.89
2023-02-15T08:27:31.983Z,6.86
2023-02-15T08:28:11.985Z,6.84
2023-02-15T08:28:52.073Z,6.85
2023-02-15T08:29:34.929Z,7.00
2023-02-15T08:30:15.998Z,7.02
2023-02-15T08:30:55.933Z,7.06
2023-02-15T08:31:38.394Z,7.08
2023-02-15T08:32:19.994Z,7.04
2023-02-15T08:33:00.112Z,7.16
2023-02-15T08:33:40.948Z,7.21
2023-02-15T08:34:27.076Z,7.26
2023-02-15T08:35:06.911Z,7.15
2023-02-15T08:35:46.998Z,7.18
2023-02-15T08:36:31.907Z,7.18
2023-02-15T08:37:12.013Z,7.31
2023-02-15T08:37:52.974Z,7.31
2023-02-15T08:38:33.686Z,7.40
2023-02-15T08:39:14.936Z,7.40
2023-02-15T08:39:54.991Z,7.44
2023-02-15T08:40:35.923Z,7.45
2023-02-15T08:41:26.277Z,7.56
2023-02-15T08:42:05.896Z,7.50
2023-02-15T08:42:45.969Z,7.56
2023-02-15T08:43:25.897Z,7.53
2023-02-15T08:44:08.970Z,7.51
2023-02-15T08:44:50.485Z,7.57
2023-02-15T08:45:31.004Z,7.62
2023-02-15T08:46:11.970Z,7.58
2023-02-15T08:46:54.243Z,7.48
2023-02-15T08:47:33.896Z,7.40
2023-02-15T08:48:13.967Z,7.51
2023-02-15T08:48:54.883Z,7.55
2023-02-15T08:49:34.962Z,7.54
2023-02-15T08:50:15.922Z,7.50
2023-02-15T08:50:55.941Z,7.60
2023-02-15T08:51:39.871Z,7.67
2023-02-15T08:52:19.986Z,7.63
2023-02-15T08:53:00.885Z,7.69
2023-02-15T08:53:41.045Z,7.56
2023-02-15T08:54:24.915Z,7.71
2023-02-15T08:55:06.984Z,7.50
2023-02-15T08:55:47.892Z,7.64
2023-02-15T08:56:34.953Z,7.76
2023-02-15T08:57:15.887Z,7.81
2023-02-15T08:57:56.505Z,7.82
2023-02-15T08:58:37.890Z,7.77
2023-02-15T08:59:27.902Z,7.69
2023-02-15T09:00:09.907Z,7.81
2023-02-15T09:00:56.924Z,7.82
2023-02-15T09:01:51.031Z,7.74
2023-02-15T09:03:06.864Z,7.61
2023-02-15T09:04:03.875Z,7.73
2023-02-15T09:04:58.897Z,7.82
2023-02-15T09:05:52.881Z,7.81
2023-02-15T09:06:33.902Z,7.85
2023-02-15T09:07:13.943Z,7.82
2023-02-15T09:07:54.892Z,7.88
2023-02-15T09:08:36.201Z,7.93
2023-02-15T09:09:16.873Z,7.84
2023-02-15T09:09:56.990Z,7.87
2023-02-15T09:10:36.846Z,7.84
2023-02-15T09:11:28.032Z,7.93
2023-02-15T09:12:07.905Z,7.85
2023-02-15T09:12:47.978Z,7.79
2023-02-15T09:13:28.862Z,7.89
2023-02-15T09:14:22.499Z,7.93
2023-02-15T09:15:02.873Z,8.02
2023-02-15T09:15:42.969Z,8.01
2023-02-15T09:16:27.010Z,8.01
2023-02-15T09:17:06.986Z,7.95
2023-02-15T09:17:47.931Z,7.99
2023-02-15T09:18:28.039Z,8.07
2023-02-15T09:19:08.876Z,8.02
2023-02-15T09:19:48.927Z,8.17
2023-02-15T09:20:29.878Z,8.20
2023-02-15T09:21:18.937Z,8.25
2023-02-15T09:21:59.853Z,8.07
2023-02-15T09:22:39.962Z,8.18
2023-02-15T09:23:26.921Z,8.31
2023-02-15T09:24:10.967Z,8.29
2023-02-15T09:24:50.859Z,8.33
2023-02-15T09:25:30.942Z,8.40
2023-02-15T09:26:23.847Z,8.30
2023-02-15T09:27:04.039Z,8.44
2023-02-15T09:27:43.845Z,8.39
2023-02-15T09:28:30.865Z,8.45
2023-02-15T09:29:26.847Z,8.24
2023-02-15T09:30:21.965Z,8.40
2023-02-15T09:31:30.979Z,8.20
2023-02-15T09:32:29.850Z,8.31
2023-02-15T09:33:23.845Z,8.31
2023-02-15T09:34:05.871Z,8.25
2023-02-15T09:34:45.978Z,8.08
2023-02-15T09:35:25.837Z,8.08
2023-02-15T09:36:05.933Z,8.15
2023-02-15T09:36:47.882Z,8.27
2023-02-15T09:37:27.929Z,8.08
2023-02-15T09:38:07.856Z,8.24
2023-02-15T09:38:47.916Z,8.30
2023-02-15T09:39:34.872Z,8.28
2023-02-15T09:40:14.896Z,8.12
2023-02-15T09:41:30.831Z,8.25
2023-02-15T09:42:34.922Z,8.07
2023-02-15T09:43:38.828Z,8.01
2023-02-15T09:44:27.897Z,7.99
2023-02-15T09:45:32.841Z,8.07
2023-02-15T09:46:40.920Z,7.89
2023-02-15T09:47:51.820Z,8.03
2023-02-15T09:48:47.914Z,8.10
2023-02-15T09:49:58.803Z,8.20
2023-02-15T09:51:12.868Z,8.03
2023-02-15T09:52:22.830Z,8.30
2023-02-15T09:53:41.836Z,8.17
2023-02-15T09:55:10.812Z,8.33
2023-02-15T09:56:44.840Z,8.25
2023-02-15T09:57:57.836Z,8.15
2023-02-15T09:59:02.817Z,8.31
2023-02-15T10:00:09.860Z,8.25
2023-02-15T10:01:27.864Z,8.15
2023-02-15T10:02:35.839Z,8.24
2023-02-15T10:03:26.908Z,8.30
2023-02-15T10:04:15.850Z,8.50
2023-02-15T10:05:29.897Z,8.40
2023-02-15T10:06:31.806Z,8.38
2023-02-15T10:07:23.894Z,8.44
2023-02-15T10:08:28.827Z,8.46
2023-02-15T10:09:44.872Z,8.30
2023-02-15T10:11:33.821Z,8.22
2023-02-15T10:12:52.873Z,8.08
2023-02-15T10:13:51.826Z,8.08
2023-02-15T10:14:54.908Z,8.19
2023-02-15T10:16:19.799Z,8.15
2023-02-15T10:17:27.990Z,8.18
2023-02-15T10:18:49.812Z,7.89
2023-02-15T10:19:48.800Z,8.09
2023-02-15T10:20:32.886Z,8.03
2023-02-15T10:21:46.793Z,7.96
2023-02-15T10:22:58.910Z,8.09
2023-02-15T10:24:19.864Z,8.17
2023-02-15T10:25:22.939Z,8.29
2023-02-15T10:26:38.863Z,8.22